sensor_id;sensor_type;location;lat;lon;timestamp;temperature;humidity
7331;DHT22;3706;49.198;7.064;2022-08-20T00:02:01;17.80;99.90
7331;DHT22;3706;49.198;7.064;2022-08-20T00:04:28;17.90;99.90
7331;DHT22;3706;49.198;7.064;2022-08-20T00:06:54;17.90;99.90
7331;DHT22;3706;49.198;7.064;2022-08-20T00:09:21;18.00;99.90
7331;DHT22;3706;49.198;7.064;2022-08-20T00:11:48;18.10;99.90
7331;DHT22;3706;49.198;7.064;2022-08-20T00:14:17;18.10;99.90
7331;DHT22;3706;49.198;7.064;2022-08-20T00:16:43;18.10;99.90
7331;DHT22;3706;49.198;7.064;2022-08-20T00:19:11;18.10;99.90
7331;DHT22;3706;49.198;7.064;2022-08-20T00:21:38;18.20;99.90
7331;DHT22;3706;49.198;7.064;2022-08-20T00:24:05;18.20;99.90
7331;DHT22;3706;49.198;7.064;2022-08-20T00:26:32;18.20;99.90
7331;DHT22;3706;49.198;7.064;2022-08-20T00:28:59;18.10;99.90
7331;DHT22;3706;49.198;7.064;2022-08-20T00:31:28;18.10;99.90
7331;DHT22;3706;49.198;7.064;2022-08-20T00:33:55;18.10;99.90
7331;DHT22;3706;49.198;7.064;2022-08-20T00:36:22;18.10;99.90
7331;DHT22;3706;49.198;7.064;2022-08-20T00:38:49;18.10;99.90
7331;DHT22;3706;49.198;7.064;2022-08-20T00:41:22;18.10;99.90
7331;DHT22;3706;49.198;7.064;2022-08-20T00:43:51;18.10;99.90
7331;DHT22;3706;49.198;7.064;2022-08-20T00:46:20;18.10;99.90
7331;DHT22;3706;49.198;7.064;2022-08-20T00:48:51;18.10;99.90
7331;DHT22;3706;49.198;7.064;2022-08-20T00:51:24;18.10;99.90
7331;DHT22;3706;49.198;7.064;2022-08-20T00:53:53;18.30;99.90
7331;DHT22;3706;49.198;7.064;2022-08-20T00:56:21;18.30;99.90
7331;DHT22;3706;49.198;7.064;2022-08-20T00:58:50;18.30;99.90
7331;DHT22;3706;49.198;7.064;2022-08-20T01:01:17;18.40;99.90
7331;DHT22;3706;49.198;7.064;2022-08-20T01:03:45;18.40;99.90
7331;DHT22;3706;49.198;7.064;2022-08-20T01:06:13;18.30;99.90
7331;DHT22;3706;49.198;7.064;2022-08-20T01:08:41;18.20;99.90
7331;DHT22;3706;49.198;7.064;2022-08-20T01:11:09;18.20;99.90
7331;DHT22;3706;49.198;7.064;2022-08-20T01:13:38;18.20;99.90
7331;DHT22;3706;49.198;7.064;2022-08-20T01:16:13;18.30;99.90
7331;DHT22;3706;49.198;7.064;2022-08-20T01:18:43;18.30;99.90
7331;DHT22;3706;49.198;7.064;2022-08-20T01:21:15;18.40;99.90
7331;DHT22;3706;49.198;7.064;2022-08-20T01:23:53;18.50;99.90
7331;DHT22;3706;49.198;7.064;2022-08-20T01:26:24;18.50;99.90
7331;DHT22;3706;49.198;7.064;2022-08-20T01:28:55;18.70;99.90
7331;DHT22;3706;49.198;7.064;2022-08-20T01:31:25;18.90;99.90
7331;DHT22;3706;49.198;7.064;2022-08-20T01:33:54;19.00;99.90
7331;DHT22;3706;49.198;7.064;2022-08-20T01:36:25;19.00;99.90
7331;DHT22;3706;49.198;7.064;2022-08-20T01:38:54;19.00;99.90
7331;DHT22;3706;49.198;7.064;2022-08-20T01:41:40;19.00;99.90
7331;DHT22;3706;49.198;7.064;2022-08-20T01:44:11;19.00;99.90
7331;DHT22;3706;49.198;7.064;2022-08-20T01:46:41;18.90;99.90
7331;DHT22;3706;49.198;7.064;2022-08-20T01:49:11;18.90;99.90
7331;DHT22;3706;49.198;7.064;2022-08-20T01:51:39;18.90;99.90
7331;DHT22;3706;49.198;7.064;2022-08-20T01:54:07;18.90;99.90
7331;DHT22;3706;49.198;7.064;2022-08-20T01:56:36;18.80;99.90
7331;DHT22;3706;49.198;7.064;2022-08-20T01:59:15;18.70;99.90
7331;DHT22;3706;49.198;7.064;2022-08-20T02:01:42;18.60;99.90
7331;DHT22;3706;49.198;7.064;2022-08-20T02:04:10;18.40;99.90
7331;DHT22;3706;49.198;7.064;2022-08-20T02:06:40;18.40;99.90
7331;DHT22;3706;49.198;7.064;2022-08-20T02:09:09;18.40;99.90
7331;DHT22;3706;49.198;7.064;2022-08-20T02:11:40;18.30;99.90
7331;DHT22;3706;49.198;7.064;2022-08-20T02:14:08;18.20;99.90
7331;DHT22;3706;49.198;7.064;2022-08-20T02:16:39;18.10;99.90
7331;DHT22;3706;49.198;7.064;2022-08-20T02:19:09;18.10;99.90
7331;DHT22;3706;49.198;7.064;2022-08-20T02:21:40;18.00;99.90
7331;DHT22;3706;49.198;7.064;2022-08-20T02:24:09;18.00;99.90
7331;DHT22;3706;49.198;7.064;2022-08-20T02:26:36;18.00;99.90
7331;DHT22;3706;49.198;7.064;2022-08-20T02:29:07;18.00;99.90
7331;DHT22;3706;49.198;7.064;2022-08-20T02:31:34;17.90;99.90
7331;DHT22;3706;49.198;7.064;2022-08-20T02:34:02;17.90;99.90
7331;DHT22;3706;49.198;7.064;2022-08-20T02:36:29;17.90;99.90
7331;DHT22;3706;49.198;7.064;2022-08-20T02:38:56;17.90;99.90
7331;DHT22;3706;49.198;7.064;2022-08-20T02:41:23;18.00;99.90
7331;DHT22;3706;49.198;7.064;2022-08-20T02:43:51;17.90;99.90
7331;DHT22;3706;49.198;7.064;2022-08-20T02:46:19;18.00;99.90
7331;DHT22;3706;49.198;7.064;2022-08-20T02:48:46;18.10;99.90
7331;DHT22;3706;49.198;7.064;2022-08-20T02:51:13;18.20;99.90
7331;DHT22;3706;49.198;7.064;2022-08-20T02:53:40;18.20;99.90
7331;DHT22;3706;49.198;7.064;2022-08-20T02:56:08;18.10;99.90
7331;DHT22;3706;49.198;7.064;2022-08-20T02:58:36;18.00;99.90
7331;DHT22;3706;49.198;7.064;2022-08-20T03:01:05;18.00;99.90
7331;DHT22;3706;49.198;7.064;2022-08-20T03:03:34;18.10;99.90
7331;DHT22;3706;49.198;7.064;2022-08-20T03:06:02;18.10;99.90
7331;DHT22;3706;49.198;7.064;2022-08-20T03:08:29;18.10;99.90
7331;DHT22;3706;49.198;7.064;2022-08-20T03:10:56;18.20;99.90
7331;DHT22;3706;49.198;7.064;2022-08-20T03:13:23;18.20;99.90
7331;DHT22;3706;49.198;7.064;2022-08-20T03:15:53;18.10;99.90
7331;DHT22;3706;49.198;7.064;2022-08-20T03:18:21;18.10;99.90
7331;DHT22;3706;49.198;7.064;2022-08-20T03:20:50;18.00;99.90
7331;DHT22;3706;49.198;7.064;2022-08-20T03:23:18;17.90;99.90
7331;DHT22;3706;49.198;7.064;2022-08-20T03:25:46;17.80;99.90
7331;DHT22;3706;49.198;7.064;2022-08-20T03:28:14;17.80;99.90
7331;DHT22;3706;49.198;7.064;2022-08-20T03:30:41;17.90;99.90
7331;DHT22;3706;49.198;7.064;2022-08-20T03:33:08;18.10;99.90
7331;DHT22;3706;49.198;7.064;2022-08-20T03:35:37;18.10;99.90
7331;DHT22;3706;49.198;7.064;2022-08-20T03:38:08;18.10;99.90
7331;DHT22;3706;49.198;7.064;2022-08-20T03:40:36;18.20;99.90
7331;DHT22;3706;49.198;7.064;2022-08-20T03:43:04;18.20;99.90
7331;DHT22;3706;49.198;7.064;2022-08-20T03:45:34;18.20;99.90
7331;DHT22;3706;49.198;7.064;2022-08-20T03:48:03;18.20;99.90
7331;DHT22;3706;49.198;7.064;2022-08-20T03:50:30;18.20;99.90
7331;DHT22;3706;49.198;7.064;2022-08-20T03:52:58;18.20;99.90
7331;DHT22;3706;49.198;7.064;2022-08-20T03:55:28;18.20;99.90
7331;DHT22;3706;49.198;7.064;2022-08-20T03:57:59;18.20;99.90
7331;DHT22;3706;49.198;7.064;2022-08-20T04:00:29;18.20;99.90
7331;DHT22;3706;49.198;7.064;2022-08-20T04:02:57;18.30;99.90
7331;DHT22;3706;49.198;7.064;2022-08-20T04:05:25;18.30;99.90
7331;DHT22;3706;49.198;7.064;2022-08-20T04:07:52;18.30;99.90
7331;DHT22;3706;49.198;7.064;2022-08-20T04:10:19;18.30;99.90
7331;DHT22;3706;49.198;7.064;2022-08-20T04:12:48;18.30;99.90
7331;DHT22;3706;49.198;7.064;2022-08-20T04:15:16;18.30;99.90
7331;DHT22;3706;49.198;7.064;2022-08-20T04:17:46;18.30;99.90
7331;DHT22;3706;49.198;7.064;2022-08-20T04:20:20;18.30;99.90
7331;DHT22;3706;49.198;7.064;2022-08-20T04:22:48;18.40;99.90
7331;DHT22;3706;49.198;7.064;2022-08-20T04:25:15;18.40;99.90
7331;DHT22;3706;49.198;7.064;2022-08-20T04:27:42;18.50;99.90
7331;DHT22;3706;49.198;7.064;2022-08-20T04:30:13;18.50;99.90
7331;DHT22;3706;49.198;7.064;2022-08-20T04:32:40;18.50;99.90
7331;DHT22;3706;49.198;7.064;2022-08-20T04:35:09;18.50;99.90
7331;DHT22;3706;49.198;7.064;2022-08-20T04:37:39;18.50;99.90
7331;DHT22;3706;49.198;7.064;2022-08-20T04:40:09;18.50;99.90
7331;DHT22;3706;49.198;7.064;2022-08-20T04:42:55;18.40;99.90
7331;DHT22;3706;49.198;7.064;2022-08-20T04:45:23;18.30;99.90
7331;DHT22;3706;49.198;7.064;2022-08-20T04:47:51;18.30;99.90
7331;DHT22;3706;49.198;7.064;2022-08-20T04:50:19;18.30;99.90
7331;DHT22;3706;49.198;7.064;2022-08-20T04:52:46;18.40;99.90
7331;DHT22;3706;49.198;7.064;2022-08-20T04:55:15;18.40;99.90
7331;DHT22;3706;49.198;7.064;2022-08-20T04:57:42;18.50;99.90
7331;DHT22;3706;49.198;7.064;2022-08-20T05:00:13;18.50;99.90
7331;DHT22;3706;49.198;7.064;2022-08-20T05:02:43;18.50;99.90
7331;DHT22;3706;49.198;7.064;2022-08-20T05:05:10;18.60;99.90
7331;DHT22;3706;49.198;7.064;2022-08-20T05:07:38;18.60;99.90
7331;DHT22;3706;49.198;7.064;2022-08-20T05:10:08;18.60;99.90
7331;DHT22;3706;49.198;7.064;2022-08-20T05:12:36;18.50;99.90
7331;DHT22;3706;49.198;7.064;2022-08-20T05:15:03;18.50;99.90
7331;DHT22;3706;49.198;7.064;2022-08-20T05:17:31;18.40;99.90
7331;DHT22;3706;49.198;7.064;2022-08-20T05:19:59;18.50;99.90
7331;DHT22;3706;49.198;7.064;2022-08-20T05:22:26;18.50;99.90
7331;DHT22;3706;49.198;7.064;2022-08-20T05:24:54;18.60;99.90
7331;DHT22;3706;49.198;7.064;2022-08-20T05:27:23;18.60;99.90
7331;DHT22;3706;49.198;7.064;2022-08-20T05:29:52;18.70;99.90
7331;DHT22;3706;49.198;7.064;2022-08-20T05:32:20;18.80;99.90
7331;DHT22;3706;49.198;7.064;2022-08-20T05:34:47;18.70;99.90
7331;DHT22;3706;49.198;7.064;2022-08-20T05:37:16;18.70;99.90
7331;DHT22;3706;49.198;7.064;2022-08-20T05:39:43;18.80;99.90
7331;DHT22;3706;49.198;7.064;2022-08-20T05:42:10;18.90;99.90
7331;DHT22;3706;49.198;7.064;2022-08-20T05:44:37;19.00;99.90
7331;DHT22;3706;49.198;7.064;2022-08-20T05:47:05;19.30;99.90
7331;DHT22;3706;49.198;7.064;2022-08-20T05:49:32;19.40;99.90
7331;DHT22;3706;49.198;7.064;2022-08-20T05:51:59;19.40;99.90
7331;DHT22;3706;49.198;7.064;2022-08-20T05:54:28;19.60;99.90
7331;DHT22;3706;49.198;7.064;2022-08-20T05:56:54;19.80;99.90
7331;DHT22;3706;49.198;7.064;2022-08-20T05:59:22;19.90;99.90
7331;DHT22;3706;49.198;7.064;2022-08-20T06:01:49;20.10;99.90
7331;DHT22;3706;49.198;7.064;2022-08-20T06:04:17;20.30;99.90
7331;DHT22;3706;49.198;7.064;2022-08-20T06:06:50;20.30;99.90
7331;DHT22;3706;49.198;7.064;2022-08-20T06:09:19;20.40;99.90
7331;DHT22;3706;49.198;7.064;2022-08-20T06:11:48;20.50;99.90
7331;DHT22;3706;49.198;7.064;2022-08-20T06:14:15;20.60;99.90
7331;DHT22;3706;49.198;7.064;2022-08-20T06:16:43;20.70;99.90
7331;DHT22;3706;49.198;7.064;2022-08-20T06:19:11;20.90;99.90
7331;DHT22;3706;49.198;7.064;2022-08-20T06:21:38;21.10;99.90
7331;DHT22;3706;49.198;7.064;2022-08-20T06:24:06;21.20;99.90
7331;DHT22;3706;49.198;7.064;2022-08-20T06:26:33;21.30;99.90
7331;DHT22;3706;49.198;7.064;2022-08-20T06:29:03;21.30;99.90
7331;DHT22;3706;49.198;7.064;2022-08-20T06:31:31;21.30;99.90
7331;DHT22;3706;49.198;7.064;2022-08-20T06:33:59;21.30;99.90
7331;DHT22;3706;49.198;7.064;2022-08-20T06:36:26;21.40;99.90
7331;DHT22;3706;49.198;7.064;2022-08-20T06:38:54;21.60;99.90
7331;DHT22;3706;49.198;7.064;2022-08-20T06:41:23;21.90;99.90
7331;DHT22;3706;49.198;7.064;2022-08-20T06:43:50;22.30;99.90
7331;DHT22;3706;49.198;7.064;2022-08-20T06:46:20;22.70;99.90
7331;DHT22;3706;49.198;7.064;2022-08-20T06:48:48;22.90;99.90
7331;DHT22;3706;49.198;7.064;2022-08-20T06:51:16;23.00;99.90
7331;DHT22;3706;49.198;7.064;2022-08-20T06:53:43;23.00;99.90
7331;DHT22;3706;49.198;7.064;2022-08-20T06:56:10;23.10;99.90
7331;DHT22;3706;49.198;7.064;2022-08-20T06:58:37;23.10;99.90
7331;DHT22;3706;49.198;7.064;2022-08-20T07:01:04;23.10;99.90
7331;DHT22;3706;49.198;7.064;2022-08-20T07:03:33;22.90;99.90
7331;DHT22;3706;49.198;7.064;2022-08-20T07:06:02;22.80;99.90
7331;DHT22;3706;49.198;7.064;2022-08-20T07:08:29;22.80;99.90
7331;DHT22;3706;49.198;7.064;2022-08-20T07:10:56;22.90;99.90
7331;DHT22;3706;49.198;7.064;2022-08-20T07:13:24;23.00;99.90
7331;DHT22;3706;49.198;7.064;2022-08-20T07:15:51;23.10;99.90
7331;DHT22;3706;49.198;7.064;2022-08-20T07:18:18;23.10;99.90
7331;DHT22;3706;49.198;7.064;2022-08-20T07:20:46;23.20;99.90
7331;DHT22;3706;49.198;7.064;2022-08-20T07:23:13;23.30;99.90
7331;DHT22;3706;49.198;7.064;2022-08-20T07:25:42;23.50;99.90
7331;DHT22;3706;49.198;7.064;2022-08-20T07:28:13;24.00;99.90
7331;DHT22;3706;49.198;7.064;2022-08-20T07:30:41;24.50;99.90
7331;DHT22;3706;49.198;7.064;2022-08-20T07:33:27;24.80;99.90
7331;DHT22;3706;49.198;7.064;2022-08-20T07:35:57;25.00;99.90
7331;DHT22;3706;49.198;7.064;2022-08-20T07:38:26;25.00;99.90
7331;DHT22;3706;49.198;7.064;2022-08-20T07:40:56;25.00;99.90
7331;DHT22;3706;49.198;7.064;2022-08-20T07:43:24;24.90;99.90
7331;DHT22;3706;49.198;7.064;2022-08-20T07:45:54;24.90;99.90
7331;DHT22;3706;49.198;7.064;2022-08-20T07:48:23;24.80;99.90
7331;DHT22;3706;49.198;7.064;2022-08-20T07:50:51;24.70;99.90
7331;DHT22;3706;49.198;7.064;2022-08-20T07:53:19;24.70;99.90
7331;DHT22;3706;49.198;7.064;2022-08-20T07:55:46;25.00;99.90
7331;DHT22;3706;49.198;7.064;2022-08-20T07:58:17;25.60;99.90
7331;DHT22;3706;49.198;7.064;2022-08-20T08:00:44;26.50;99.90
7331;DHT22;3706;49.198;7.064;2022-08-20T08:03:12;27.10;99.80
7331;DHT22;3706;49.198;7.064;2022-08-20T08:05:42;27.60;95.60
7331;DHT22;3706;49.198;7.064;2022-08-20T08:08:12;28.10;91.00
7331;DHT22;3706;49.198;7.064;2022-08-20T08:10:41;28.70;89.10
7331;DHT22;3706;49.198;7.064;2022-08-20T08:13:10;30.00;84.00
7331;DHT22;3706;49.198;7.064;2022-08-20T08:15:41;31.00;78.60
7331;DHT22;3706;49.198;7.064;2022-08-20T08:18:13;30.80;76.50
7331;DHT22;3706;49.198;7.064;2022-08-20T08:20:42;30.70;74.80
7331;DHT22;3706;49.198;7.064;2022-08-20T08:23:11;31.20;74.70
7331;DHT22;3706;49.198;7.064;2022-08-20T08:25:38;32.20;70.90
7331;DHT22;3706;49.198;7.064;2022-08-20T08:28:08;33.00;67.30
7331;DHT22;3706;49.198;7.064;2022-08-20T08:30:36;33.80;65.70
7331;DHT22;3706;49.198;7.064;2022-08-20T08:33:05;34.50;64.20
7331;DHT22;3706;49.198;7.064;2022-08-20T08:35:49;35.20;60.00
7331;DHT22;3706;49.198;7.064;2022-08-20T08:38:17;35.20;59.30
7331;DHT22;3706;49.198;7.064;2022-08-20T08:40:44;35.20;58.80
7331;DHT22;3706;49.198;7.064;2022-08-20T08:43:14;35.20;57.80
7331;DHT22;3706;49.198;7.064;2022-08-20T08:45:49;35.10;57.90
7331;DHT22;3706;49.198;7.064;2022-08-20T08:48:17;35.20;56.20
7331;DHT22;3706;49.198;7.064;2022-08-20T08:50:48;34.70;56.70
7331;DHT22;3706;49.198;7.064;2022-08-20T08:53:19;34.30;56.90
7331;DHT22;3706;49.198;7.064;2022-08-20T08:55:47;34.10;57.10
7331;DHT22;3706;49.198;7.064;2022-08-20T08:58:16;33.70;57.10
7331;DHT22;3706;49.198;7.064;2022-08-20T09:00:43;34.00;57.70
7331;DHT22;3706;49.198;7.064;2022-08-20T09:03:15;34.30;56.30
7331;DHT22;3706;49.198;7.064;2022-08-20T09:05:46;34.10;56.40
7331;DHT22;3706;49.198;7.064;2022-08-20T09:08:16;33.60;56.10
7331;DHT22;3706;49.198;7.064;2022-08-20T09:10:44;33.60;56.30
7331;DHT22;3706;49.198;7.064;2022-08-20T09:13:12;33.60;56.00
7331;DHT22;3706;49.198;7.064;2022-08-20T09:15:40;33.70;54.60
7331;DHT22;3706;49.198;7.064;2022-08-20T09:18:07;33.30;54.00
7331;DHT22;3706;49.198;7.064;2022-08-20T09:20:34;33.40;55.40
7331;DHT22;3706;49.198;7.064;2022-08-20T09:23:04;34.00;54.00
7331;DHT22;3706;49.198;7.064;2022-08-20T09:25:31;34.60;53.50
7331;DHT22;3706;49.198;7.064;2022-08-20T09:27:58;34.90;52.60
7331;DHT22;3706;49.198;7.064;2022-08-20T09:30:25;35.20;51.40
7331;DHT22;3706;49.198;7.064;2022-08-20T09:32:53;35.50;51.30
7331;DHT22;3706;49.198;7.064;2022-08-20T09:35:20;35.50;52.00
7331;DHT22;3706;49.198;7.064;2022-08-20T09:37:47;35.40;51.80
7331;DHT22;3706;49.198;7.064;2022-08-20T09:40:14;35.20;51.20
7331;DHT22;3706;49.198;7.064;2022-08-20T09:42:41;35.20;51.20
7331;DHT22;3706;49.198;7.064;2022-08-20T09:45:10;35.40;51.80
7331;DHT22;3706;49.198;7.064;2022-08-20T09:47:38;35.80;50.90
7331;DHT22;3706;49.198;7.064;2022-08-20T09:50:08;36.20;50.00
7331;DHT22;3706;49.198;7.064;2022-08-20T09:52:37;36.40;49.30
7331;DHT22;3706;49.198;7.064;2022-08-20T09:55:15;36.40;48.80
7331;DHT22;3706;49.198;7.064;2022-08-20T09:57:42;36.10;48.30
7331;DHT22;3706;49.198;7.064;2022-08-20T10:00:10;35.20;48.80
7331;DHT22;3706;49.198;7.064;2022-08-20T10:02:37;34.70;50.30
7331;DHT22;3706;49.198;7.064;2022-08-20T10:05:07;34.30;51.10
7331;DHT22;3706;49.198;7.064;2022-08-20T10:07:34;34.50;51.10
7331;DHT22;3706;49.198;7.064;2022-08-20T10:10:03;34.90;50.50
7331;DHT22;3706;49.198;7.064;2022-08-20T10:12:31;35.20;49.80
7331;DHT22;3706;49.198;7.064;2022-08-20T10:14:58;35.50;49.90
7331;DHT22;3706;49.198;7.064;2022-08-20T10:17:25;35.10;49.80
7331;DHT22;3706;49.198;7.064;2022-08-20T10:19:51;34.70;50.30
7331;DHT22;3706;49.198;7.064;2022-08-20T10:22:20;34.60;50.20
7331;DHT22;3706;49.198;7.064;2022-08-20T10:24:47;34.70;49.30
7331;DHT22;3706;49.198;7.064;2022-08-20T10:27:14;34.70;49.40
7331;DHT22;3706;49.198;7.064;2022-08-20T10:29:40;35.20;48.60
7331;DHT22;3706;49.198;7.064;2022-08-20T10:32:09;35.50;47.50
7331;DHT22;3706;49.198;7.064;2022-08-20T10:34:37;34.90;48.80
7331;DHT22;3706;49.198;7.064;2022-08-20T10:37:04;34.80;50.00
7331;DHT22;3706;49.198;7.064;2022-08-20T10:39:33;34.90;50.50
7331;DHT22;3706;49.198;7.064;2022-08-20T10:42:00;34.50;51.20
7331;DHT22;3706;49.198;7.064;2022-08-20T10:44:27;34.30;51.30
7331;DHT22;3706;49.198;7.064;2022-08-20T10:46:54;33.90;52.10
7331;DHT22;3706;49.198;7.064;2022-08-20T10:49:21;33.60;52.40
7331;DHT22;3706;49.198;7.064;2022-08-20T10:51:48;33.50;53.00
7331;DHT22;3706;49.198;7.064;2022-08-20T10:54:15;33.90;52.80
7331;DHT22;3706;49.198;7.064;2022-08-20T10:56:44;34.30;51.30
7331;DHT22;3706;49.198;7.064;2022-08-20T10:59:11;34.10;51.20
7331;DHT22;3706;49.198;7.064;2022-08-20T11:01:38;33.90;50.80
7331;DHT22;3706;49.198;7.064;2022-08-20T11:04:05;33.60;51.20
7331;DHT22;3706;49.198;7.064;2022-08-20T11:06:32;33.40;51.10
7331;DHT22;3706;49.198;7.064;2022-08-20T11:08:59;33.40;51.00
7331;DHT22;3706;49.198;7.064;2022-08-20T11:11:26;33.30;50.80
7331;DHT22;3706;49.198;7.064;2022-08-20T11:13:54;33.00;51.60
7331;DHT22;3706;49.198;7.064;2022-08-20T11:16:21;33.20;50.60
7331;DHT22;3706;49.198;7.064;2022-08-20T11:18:48;33.30;51.20
7331;DHT22;3706;49.198;7.064;2022-08-20T11:21:15;33.40;50.50
7331;DHT22;3706;49.198;7.064;2022-08-20T11:23:41;32.90;50.60
7331;DHT22;3706;49.198;7.064;2022-08-20T11:26:09;32.50;51.40
7331;DHT22;3706;49.198;7.064;2022-08-20T11:28:36;32.30;52.50
7331;DHT22;3706;49.198;7.064;2022-08-20T11:31:04;32.40;52.70
7331;DHT22;3706;49.198;7.064;2022-08-20T11:33:31;32.60;52.70
7331;DHT22;3706;49.198;7.064;2022-08-20T11:35:58;32.70;51.20
7331;DHT22;3706;49.198;7.064;2022-08-20T11:38:25;32.50;52.00
7331;DHT22;3706;49.198;7.064;2022-08-20T11:40:52;32.50;51.40
7331;DHT22;3706;49.198;7.064;2022-08-20T11:43:19;32.50;51.50
7331;DHT22;3706;49.198;7.064;2022-08-20T11:45:48;32.30;51.40
7331;DHT22;3706;49.198;7.064;2022-08-20T11:48:17;32.50;50.90
7331;DHT22;3706;49.198;7.064;2022-08-20T11:50:44;32.40;50.30
7331;DHT22;3706;49.198;7.064;2022-08-20T11:53:11;32.20;51.30
7331;DHT22;3706;49.198;7.064;2022-08-20T11:55:38;32.30;52.60
7331;DHT22;3706;49.198;7.064;2022-08-20T11:58:05;32.50;52.10
7331;DHT22;3706;49.198;7.064;2022-08-20T12:00:33;32.60;50.40
7331;DHT22;3706;49.198;7.064;2022-08-20T12:03:01;32.40;51.20
7331;DHT22;3706;49.198;7.064;2022-08-20T12:05:30;32.30;51.40
7331;DHT22;3706;49.198;7.064;2022-08-20T12:07:59;32.30;51.70
7331;DHT22;3706;49.198;7.064;2022-08-20T12:10:27;32.30;52.50
7331;DHT22;3706;49.198;7.064;2022-08-20T12:12:54;32.20;53.20
7331;DHT22;3706;49.198;7.064;2022-08-20T12:15:23;32.20;53.00
7331;DHT22;3706;49.198;7.064;2022-08-20T12:17:51;32.40;52.70
7331;DHT22;3706;49.198;7.064;2022-08-20T12:20:18;32.90;51.60
7331;DHT22;3706;49.198;7.064;2022-08-20T12:22:46;32.90;52.40
7331;DHT22;3706;49.198;7.064;2022-08-20T12:25:14;32.90;52.40
7331;DHT22;3706;49.198;7.064;2022-08-20T12:27:41;33.00;52.50
7331;DHT22;3706;49.198;7.064;2022-08-20T12:30:12;32.90;52.50
7331;DHT22;3706;49.198;7.064;2022-08-20T12:32:39;32.90;52.40
7331;DHT22;3706;49.198;7.064;2022-08-20T12:35:09;32.70;52.80
7331;DHT22;3706;49.198;7.064;2022-08-20T12:37:36;32.50;52.90
7331;DHT22;3706;49.198;7.064;2022-08-20T12:40:08;32.30;53.00
7331;DHT22;3706;49.198;7.064;2022-08-20T12:42:36;32.10;53.50
7331;DHT22;3706;49.198;7.064;2022-08-20T12:45:05;32.30;53.20
7331;DHT22;3706;49.198;7.064;2022-08-20T12:47:34;32.30;54.00
7331;DHT22;3706;49.198;7.064;2022-08-20T12:50:04;31.90;54.30
7331;DHT22;3706;49.198;7.064;2022-08-20T12:52:32;31.70;55.00
7331;DHT22;3706;49.198;7.064;2022-08-20T12:55:00;31.50;53.50
7331;DHT22;3706;49.198;7.064;2022-08-20T12:57:31;31.30;54.00
7331;DHT22;3706;49.198;7.064;2022-08-20T13:00:00;30.90;53.60
7331;DHT22;3706;49.198;7.064;2022-08-20T13:02:27;30.90;55.10
7331;DHT22;3706;49.198;7.064;2022-08-20T13:04:54;30.90;55.20
7331;DHT22;3706;49.198;7.064;2022-08-20T13:07:21;31.00;54.80
7331;DHT22;3706;49.198;7.064;2022-08-20T13:09:48;31.20;54.90
7331;DHT22;3706;49.198;7.064;2022-08-20T13:12:15;31.30;54.70
7331;DHT22;3706;49.198;7.064;2022-08-20T13:14:43;31.30;54.00
7331;DHT22;3706;49.198;7.064;2022-08-20T13:17:10;30.90;54.90
7331;DHT22;3706;49.198;7.064;2022-08-20T13:19:38;30.60;55.30
7331;DHT22;3706;49.198;7.064;2022-08-20T13:22:05;30.40;55.60
7331;DHT22;3706;49.198;7.064;2022-08-20T13:24:32;30.50;54.60
7331;DHT22;3706;49.198;7.064;2022-08-20T13:27:04;30.40;53.60
7331;DHT22;3706;49.198;7.064;2022-08-20T13:29:31;30.30;53.60
7331;DHT22;3706;49.198;7.064;2022-08-20T13:32:00;30.00;54.10
7331;DHT22;3706;49.198;7.064;2022-08-20T13:34:27;29.80;55.60
7331;DHT22;3706;49.198;7.064;2022-08-20T13:36:54;29.70;56.10
7331;DHT22;3706;49.198;7.064;2022-08-20T13:39:22;29.70;56.10
7331;DHT22;3706;49.198;7.064;2022-08-20T13:41:49;29.80;55.70
7331;DHT22;3706;49.198;7.064;2022-08-20T13:44:16;29.90;56.00
7331;DHT22;3706;49.198;7.064;2022-08-20T13:46:43;29.80;56.40
7331;DHT22;3706;49.198;7.064;2022-08-20T13:49:13;29.70;56.00
7331;DHT22;3706;49.198;7.064;2022-08-20T13:51:40;29.60;55.70
7331;DHT22;3706;49.198;7.064;2022-08-20T13:54:07;29.30;55.10
7331;DHT22;3706;49.198;7.064;2022-08-20T13:56:34;29.00;55.90
7331;DHT22;3706;49.198;7.064;2022-08-20T13:59:01;28.80;55.60
7331;DHT22;3706;49.198;7.064;2022-08-20T14:01:28;28.80;55.10
7331;DHT22;3706;49.198;7.064;2022-08-20T14:03:55;28.80;55.50
7331;DHT22;3706;49.198;7.064;2022-08-20T14:06:24;28.80;56.30
7331;DHT22;3706;49.198;7.064;2022-08-20T14:08:51;28.80;57.00
7331;DHT22;3706;49.198;7.064;2022-08-20T14:11:18;28.70;55.30
7331;DHT22;3706;49.198;7.064;2022-08-20T14:13:45;28.40;55.70
7331;DHT22;3706;49.198;7.064;2022-08-20T14:16:12;28.30;56.00
7331;DHT22;3706;49.198;7.064;2022-08-20T14:18:39;28.40;57.20
7331;DHT22;3706;49.198;7.064;2022-08-20T14:21:06;28.30;57.00
7331;DHT22;3706;49.198;7.064;2022-08-20T14:23:34;28.20;57.60
7331;DHT22;3706;49.198;7.064;2022-08-20T14:26:01;28.00;58.20
7331;DHT22;3706;49.198;7.064;2022-08-20T14:28:28;28.00;58.10
7331;DHT22;3706;49.198;7.064;2022-08-20T14:30:55;28.00;57.30
7331;DHT22;3706;49.198;7.064;2022-08-20T14:33:22;27.90;57.40
7331;DHT22;3706;49.198;7.064;2022-08-20T14:35:50;27.80;58.20
7331;DHT22;3706;49.198;7.064;2022-08-20T14:38:17;27.70;58.90
7331;DHT22;3706;49.198;7.064;2022-08-20T14:40:45;27.70;58.40
7331;DHT22;3706;49.198;7.064;2022-08-20T14:43:14;27.60;58.10
7331;DHT22;3706;49.198;7.064;2022-08-20T14:45:41;27.60;58.20
7331;DHT22;3706;49.198;7.064;2022-08-20T14:48:08;27.60;57.80
7331;DHT22;3706;49.198;7.064;2022-08-20T14:50:36;27.50;57.20
7331;DHT22;3706;49.198;7.064;2022-08-20T14:53:04;27.40;57.80
7331;DHT22;3706;49.198;7.064;2022-08-20T14:55:35;27.50;58.80
7331;DHT22;3706;49.198;7.064;2022-08-20T14:58:07;27.60;57.40
7331;DHT22;3706;49.198;7.064;2022-08-20T15:00:34;27.70;56.90
7331;DHT22;3706;49.198;7.064;2022-08-20T15:03:02;27.80;56.60
7331;DHT22;3706;49.198;7.064;2022-08-20T15:05:31;27.90;56.20
7331;DHT22;3706;49.198;7.064;2022-08-20T15:07:59;27.80;56.00
7331;DHT22;3706;49.198;7.064;2022-08-20T15:10:28;27.70;56.40
7331;DHT22;3706;49.198;7.064;2022-08-20T15:12:55;27.80;56.20
7331;DHT22;3706;49.198;7.064;2022-08-20T15:15:24;27.80;55.10
7331;DHT22;3706;49.198;7.064;2022-08-20T15:17:55;27.60;56.30
7331;DHT22;3706;49.198;7.064;2022-08-20T15:20:25;27.50;54.50
7331;DHT22;3706;49.198;7.064;2022-08-20T15:22:53;27.30;55.20
7331;DHT22;3706;49.198;7.064;2022-08-20T15:25:24;27.30;55.70
7331;DHT22;3706;49.198;7.064;2022-08-20T15:27:54;27.30;55.60
7331;DHT22;3706;49.198;7.064;2022-08-20T15:30:22;27.30;56.50
7331;DHT22;3706;49.198;7.064;2022-08-20T15:32:50;27.30;56.30
7331;DHT22;3706;49.198;7.064;2022-08-20T15:35:18;27.30;56.60
7331;DHT22;3706;49.198;7.064;2022-08-20T15:37:47;27.30;56.60
7331;DHT22;3706;49.198;7.064;2022-08-20T15:40:17;27.20;56.90
7331;DHT22;3706;49.198;7.064;2022-08-20T15:42:45;27.20;57.70
7331;DHT22;3706;49.198;7.064;2022-08-20T15:45:14;27.10;56.70
7331;DHT22;3706;49.198;7.064;2022-08-20T15:47:50;26.90;57.50
7331;DHT22;3706;49.198;7.064;2022-08-20T15:50:37;26.80;58.00
7331;DHT22;3706;49.198;7.064;2022-08-20T15:53:11;26.70;58.50
7331;DHT22;3706;49.198;7.064;2022-08-20T15:55:45;26.60;58.00
7331;DHT22;3706;49.198;7.064;2022-08-20T15:58:19;26.60;57.90
7331;DHT22;3706;49.198;7.064;2022-08-20T16:00:53;26.50;58.10
7331;DHT22;3706;49.198;7.064;2022-08-20T16:03:36;26.50;58.60
7331;DHT22;3706;49.198;7.064;2022-08-20T16:06:08;26.60;58.60
7331;DHT22;3706;49.198;7.064;2022-08-20T16:08:55;26.50;58.20
7331;DHT22;3706;49.198;7.064;2022-08-20T16:11:34;26.50;58.50